Time;durP1;ratioP1;P1;durP2;ratioP2;P2;SDS_P1;SDS_P2;PMS_P1;PMS_P2;Temp;Humidity;BMP_temperature;BMP_pressure;BME280_temperature;BME280_humidity;BME280_pressure;Samples;Min_cycle;Max_cycle;Signal;HPM_P1;HPM_P2
2023/02/04 00:01:40;;;;;;;;;3.50;3.00;;;;;19.03;43.53;102922.56;5087998;27;45407;-80
2023/02/04 00:04:05;;;;;;;;;4.50;3.00;;;;;19.05;43.57;102929.56;5098692;27;45373;-80
2023/02/04 00:06:31;;;;;;;;;5.25;3.00;;;;;19.02;43.76;102928.78;5084750;27;45248;-80
2023/02/04 00:08:56;;;;;;;;;3.75;3.00;;;;;19.04;43.71;102922.50;5090186;27;60602;-80
2023/02/04 00:11:22;;;;;;;;;4.75;2.50;;;;;19.02;43.69;102924.34;5080693;27;45286;-81
2023/02/04 00:13:47;;;;;;;;;4.75;2.75;;;;;19.03;43.59;102926.06;5098923;27;45358;-80
2023/02/04 00:16:13;;;;;;;;;3.00;3.00;;;;;19.00;43.53;102920.88;5092265;27;45428;-81
2023/02/04 00:18:38;;;;;;;;;3.50;2.75;;;;;18.95;43.94;102910.38;5099921;27;46296;-80
2023/02/04 00:21:03;;;;;;;;;2.75;2.75;;;;;18.91;43.58;102903.41;5071069;27;45809;-80
2023/02/04 00:23:29;;;;;;;;;3.75;2.25;;;;;18.90;43.63;102909.63;5097094;27;45365;-80
2023/02/04 00:25:54;;;;;;;;;3.00;2.00;;;;;18.91;43.77;102906.06;5095193;27;45416;-80
2023/02/04 00:28:19;;;;;;;;;3.75;3.75;;;;;19.03;43.54;102922.56;5088502;27;62692;-81
2023/02/04 00:30:46;;;;;;;;;4.75;2.50;;;;;18.94;43.43;102905.09;5091143;27;67967;-81
2023/02/04 00:33:11;;;;;;;;;3.75;3.75;;;;;18.95;43.78;102904.19;5098871;27;45418;-81
2023/02/04 00:35:37;;;;;;;;;5.75;3.75;;;;;19.01;43.87;102922.59;5079249;27;45499;-81
2023/02/04 00:38:03;;;;;;;;;3.00;2.75;;;;;19.01;43.45;102919.94;5087728;27;64535;-80
2023/02/04 00:40:28;;;;;;;;;3.00;3.00;;;;;19.01;43.63;102911.13;5094321;27;45469;-80
2023/02/04 00:42:54;;;;;;;;;3.50;2.75;;;;;18.99;43.46;102908.50;5090918;27;45389;-81
2023/02/04 00:45:19;;;;;;;;;4.00;3.00;;;;;19.01;43.45;102911.97;5092480;27;45423;-81
2023/02/04 00:47:45;;;;;;;;;3.00;3.00;;;;;19.00;43.59;102907.59;5087842;27;45459;-81
2023/02/04 00:50:10;;;;;;;;;2.25;2.25;;;;;18.96;43.70;102904.16;5079747;27;45255;-81
2023/02/04 00:52:35;;;;;;;;;3.75;3.75;;;;;18.97;43.53;102900.56;5095937;27;45295;-81
2023/02/04 00:55:01;;;;;;;;;3.75;3.25;;;;;19.02;43.91;102915.53;5091794;27;71275;-81
2023/02/04 00:57:26;;;;;;;;;3.75;3.75;;;;;18.88;43.40;102892.88;5080849;27;58281;-81
2023/02/04 00:59:51;;;;;;;;;2.75;2.50;;;;;18.98;43.62;102909.41;5090833;27;45351;-81
2023/02/04 01:02:17;;;;;;;;;3.75;2.75;;;;;18.97;43.56;102916.50;5079824;27;59298;-81
2023/02/04 01:04:42;;;;;;;;;4.50;4.00;;;;;19.00;43.60;102917.31;5095187;27;45562;-81
2023/02/04 01:07:07;;;;;;;;;3.00;3.00;;;;;19.01;43.64;102925.25;5091778;27;45384;-81
2023/02/04 01:09:33;;;;;;;;;5.75;4.00;;;;;19.01;43.47;102925.25;5099751;27;45377;-81
2023/02/04 01:11:58;;;;;;;;;4.00;3.50;;;;;18.97;43.24;102926.25;5090461;27;48363;-80
2023/02/04 01:14:24;;;;;;;;;3.00;3.00;;;;;18.92;43.83;102907.78;5098240;27;61201;-80
2023/02/04 01:16:49;;;;;;;;;4.75;3.75;;;;;18.96;43.25;102916.53;5089966;27;47626;-80
2023/02/04 01:19:14;;;;;;;;;3.00;3.00;;;;;18.96;43.65;102927.16;5082832;27;53765;-80
2023/02/04 01:21:40;;;;;;;;;4.75;3.00;;;;;18.97;43.44;102926.25;5098869;27;65130;-80
2023/02/04 01:24:05;;;;;;;;;3.00;3.00;;;;;18.91;43.43;102922.00;5100900;27;45393;-80
2023/02/04 01:26:30;;;;;;;;;6.25;4.00;;;;;18.95;43.57;102925.44;5100289;27;65291;-80
2023/02/04 01:28:56;;;;;;;;;3.75;3.75;;;;;18.92;43.49;102922.84;5100654;27;46747;-80
2023/02/04 01:31:21;;;;;;;;;3.75;2.75;;;;;18.95;43.65;102928.94;5095375;27;46217;-80
2023/02/04 01:33:46;;;;;;;;;3.00;2.50;;;;;18.90;43.51;102914.94;5080370;27;55588;-80
2023/02/04 01:36:12;;;;;;;;;4.25;3.75;;;;;18.97;43.39;102937.72;5076143;27;47401;-80
2023/02/04 01:38:38;;;;;;;;;4.75;3.00;;;;;18.93;43.34;102933.44;5097345;27;45330;-80
2023/02/04 01:41:04;;;;;;;;;3.25;3.25;;;;;18.91;43.44;102929.06;5091143;27;45488;-80
2023/02/04 01:43:30;;;;;;;;;6.75;4.00;;;;;18.96;43.59;102941.31;5077556;27;45638;-80
2023/02/04 01:45:55;;;;;;;;;1.75;0.75;;;;;18.92;43.69;102930.81;5088663;27;45440;-80
2023/02/04 01:48:21;;;;;;;;;3.25;3.25;;;;;18.93;43.25;102937.88;5089776;27;58446;-80
2023/02/04 01:50:52;;;;;;;;;2.50;2.00;;;;;18.95;43.38;102936.91;5079354;27;45340;-80
2023/02/04 01:53:21;;;;;;;;;2.25;2.25;;;;;18.95;43.40;102939.56;5096510;27;45378;-80
2023/02/04 01:55:47;;;;;;;;;2.25;2.25;;;;;18.93;43.65;102935.22;5089193;27;45358;-80
2023/02/04 01:58:13;;;;;;;;;2.75;2.75;;;;;18.95;43.59;102936.03;5093985;27;45803;-80
2023/02/04 02:00:39;;;;;;;;;3.75;2.75;;;;;18.93;43.28;102932.56;5110636;27;45447;-80
2023/02/04 02:03:05;;;;;;;;;3.00;3.00;;;;;18.95;43.60;102938.69;5083701;27;45510;-80
2023/02/04 02:05:43;;;;;;;;;1.50;1.50;;;;;18.94;43.51;102935.16;5080846;27;47623;-80
2023/02/04 02:08:09;;;;;;;;;2.00;2.00;;;;;18.94;43.17;102923.66;5098992;27;45746;-80
2023/02/04 02:10:36;;;;;;;;;2.25;2.25;;;;;18.89;43.28;102914.97;5097522;27;45398;-80
2023/02/04 02:13:02;;;;;;;;;4.00;2.75;;;;;18.93;43.31;102925.47;5094302;27;45540;-80
2023/02/04 02:15:27;;;;;;;;;3.00;3.00;;;;;18.90;43.26;102922.03;5094981;27;45376;-80
2023/02/04 02:17:53;;;;;;;;;4.00;3.50;;;;;18.93;43.29;102925.47;5098315;27;58935;-80
2023/02/04 02:20:23;;;;;;;;;4.00;3.00;;;;;18.91;43.36;102916.69;5096025;27;45389;-80
2023/02/04 02:22:49;;;;;;;;;4.00;3.00;;;;;18.93;43.54;102921.94;5086372;27;45371;-80
2023/02/04 02:25:14;;;;;;;;;4.00;2.67;;;;;18.86;43.01;102909.75;5096393;27;47976;-80
2023/02/04 02:27:40;;;;;;;;;2.75;2.75;;;;;18.89;43.45;102909.66;5091714;27;45395;-80
2023/02/04 02:30:07;;;;;;;;;5.50;4.00;;;;;18.93;43.44;102922.81;5098251;27;62097;-80
2023/02/04 02:32:33;;;;;;;;;3.50;2.75;;;;;18.88;43.53;102903.50;5086700;27;45489;-80
2023/02/04 02:34:58;;;;;;;;;1.75;1.75;;;;;18.90;43.26;102914.94;5096726;27;57671;-80
2023/02/04 02:37:23;;;;;;;;;4.25;2.50;;;;;18.91;43.24;102908.72;5081189;27;45429;-80
2023/02/04 02:39:49;;;;;;;;;2.75;2.75;;;;;18.91;43.45;102916.69;5092022;27;45242;-80
2023/02/04 02:42:16;;;;;;;;;3.25;2.75;;;;;18.91;43.52;102908.72;5088769;27;45636;-80
2023/02/04 02:44:43;;;;;;;;;4.50;4.00;;;;;18.91;43.38;102910.47;5092692;27;45512;-80
2023/02/04 02:47:13;;;;;;;;;2.25;2.25;;;;;18.90;43.33;102919.38;5087557;27;45446;-80
2023/02/04 02:49:39;;;;;;;;;3.00;3.00;;;;;18.90;43.20;102919.38;5077189;27;45479;-80
2023/02/04 02:52:05;;;;;;;;;4.00;4.00;;;;;18.89;43.29;102910.56;5090418;27;45334;-80
2023/02/04 02:54:32;;;;;;;;;4.25;4.00;;;;;18.91;43.24;102921.09;5095616;27;69060;-80
2023/02/04 02:56:57;;;;;;;;;2.00;2.00;;;;;18.90;43.47;102914.94;5081896;27;45824;-80
2023/02/04 02:59:24;;;;;;;;;6.75;2.75;;;;;18.90;43.44;102917.56;5090647;27;61992;-80
2023/02/04 03:01:53;;;;;;;;;7.00;3.25;;;;;18.90;43.33;102914.06;5097051;27;45495;-80
2023/02/04 03:04:19;;;;;;;;;3.75;2.75;;;;;18.84;43.35;102907.16;5099000;27;46756;-80
2023/02/04 03:06:45;;;;;;;;;6.00;2.75;;;;;18.89;43.25;102920.28;5097699;27;45596;-80
2023/02/04 03:09:11;;;;;;;;;5.25;3.25;;;;;18.70;43.25;102896.88;5098569;27;54335;-80
2023/02/04 03:11:36;;;;;;;;;2.50;2.50;;;;;18.86;43.38;102918.59;5093670;27;45426;-80
2023/02/04 03:14:02;;;;;;;;;3.00;3.00;;;;;18.81;43.37;102911.63;5102619;27;61064;-80
2023/02/04 03:16:31;;;;;;;;;5.50;2.75;;;;;18.83;43.32;102910.69;5102821;27;57820;-81
2023/02/04 03:18:58;;;;;;;;;5.00;3.50;;;;;18.85;43.20;102915.97;5080390;27;45405;-81
2023/02/04 03:21:23;;;;;;;;;3.00;3.00;;;;;18.82;43.43;102906.28;5100678;27;45353;-81
2023/02/04 03:23:49;;;;;;;;;4.00;2.75;;;;;18.85;43.24;102915.97;5093553;27;63664;-81
2023/02/04 03:26:14;;;;;;;;;6.25;3.25;;;;;18.88;43.34;102916.75;5095814;27;45393;-81
2023/02/04 03:28:40;;;;;;;;;6.25;3.75;;;;;18.83;43.36;102912.50;5099587;27;56465;-81
2023/02/04 03:31:06;;;;;;;;;5.75;2.75;;;;;18.84;43.24;102915.09;5097021;27;45335;-81
2023/02/04 03:33:32;;;;;;;;;2.75;2.75;;;;;18.81;43.46;102904.53;5098623;27;46357;-81
2023/02/04 03:36:01;;;;;;;;;3.75;3.75;;;;;18.87;43.06;102920.31;5086632;27;45425;-81
2023/02/04 03:38:26;;;;;;;;;4.00;2.75;;;;;18.87;43.41;102932.72;5097784;27;45359;-81
2023/02/04 03:40:52;;;;;;;;;3.75;3.75;;;;;18.84;43.19;102922.16;5084299;27;45436;-81
2023/02/04 03:43:17;;;;;;;;;5.75;3.00;;;;;18.87;43.41;102922.97;5080688;27;47078;-81
2023/02/04 03:45:43;;;;;;;;;7.25;3.00;;;;;18.86;43.28;102918.59;5082170;27;45400;-81
2023/02/04 03:48:08;;;;;;;;;3.00;2.75;;;;;18.86;43.24;102931.84;5076994;27;45439;-81
2023/02/04 03:50:34;;;;;;;;;3.50;2.00;;;;;18.83;43.52;102923.97;5090549;27;45389;-81
2023/02/04 03:52:59;;;;;;;;;6.00;2.00;;;;;18.83;43.43;102923.97;5083048;27;56871;-81
2023/02/04 03:55:25;;;;;;;;;3.25;3.25;;;;;18.85;43.45;102926.56;5077452;27;58960;-81
2023/02/04 03:57:51;;;;;;;;;3.00;2.50;;;;;18.83;43.22;102921.31;5093626;27;45407;-81
2023/02/04 04:00:16;;;;;;;;;3.25;2.50;;;;;18.79;43.19;102917.84;5077974;27;45549;-81
2023/02/04 04:02:42;;;;;;;;;3.75;2.75;;;;;18.84;43.53;102928.38;5079909;27;46822;-81
2023/02/04 04:05:08;;;;;;;;;4.00;3.00;;;;;18.85;43.09;102935.41;5097074;27;45345;-81
2023/02/04 04:07:33;;;;;;;;;4.25;2.50;;;;;18.84;43.50;102933.69;5092796;27;45427;-81
2023/02/04 04:09:58;;;;;;;;;2.25;2.25;;;;;18.80;43.21;102929.31;5092937;27;69206;-81
2023/02/04 04:12:24;;;;;;;;;2.50;2.00;;;;;18.80;43.08;102934.63;5093555;27;47289;-81
2023/02/04 04:14:49;;;;;;;;;4.00;4.00;;;;;18.78;43.27;102923.19;5092499;27;52552;-81
2023/02/04 04:17:14;;;;;;;;;5.25;3.00;;;;;18.81;43.32;102938.16;5093286;27;47582;-81
2023/02/04 04:19:40;;;;;;;;;5.00;3.75;;;;;18.78;43.42;102932.00;5094954;27;45520;-81
2023/02/04 04:22:05;;;;;;;;;3.75;3.00;;;;;18.84;43.18;102941.63;5094041;27;54230;-81
2023/02/04 04:24:31;;;;;;;;;2.50;2.25;;;;;18.82;43.30;102943.44;5089421;27;45365;-81
2023/02/04 04:26:56;;;;;;;;;5.50;2.50;;;;;18.81;43.12;102943.47;5080793;27;45391;-81
2023/02/04 04:29:21;;;;;;;;;4.25;3.00;;;;;18.82;43.27;102939.91;5091186;27;61710;-81
2023/02/04 04:31:47;;;;;;;;;2.25;2.25;;;;;18.82;43.14;102931.97;5086921;27;54526;-81
2023/02/04 04:34:12;;;;;;;;;3.75;1.75;;;;;18.83;43.28;102944.31;5092356;27;45240;-81
2023/02/04 04:36:37;;;;;;;;;4.00;3.00;;;;;18.77;43.31;102940.88;5084549;27;55321;-81
2023/02/04 04:39:03;;;;;;;;;3.75;3.00;;;;;18.79;43.29;102947.03;5091389;27;45550;-81
2023/02/04 04:41:28;;;;;;;;;4.00;2.75;;;;;18.77;43.26;102948.84;5080803;27;67769;-81
2023/02/04 04:43:53;;;;;;;;;4.00;4.00;;;;;18.70;43.56;102936.66;5081881;27;61871;-81
2023/02/04 04:46:19;;;;;;;;;2.25;1.75;;;;;18.82;43.32;102955.84;5091292;27;48243;-81
2023/02/04 04:48:44;;;;;;;;;3.50;2.00;;;;;18.79;43.47;102951.47;5080541;27;45523;-81
2023/02/04 04:51:09;;;;;;;;;3.75;3.00;;;;;18.78;43.13;102947.91;5093038;27;47137;-81
2023/02/04 04:53:35;;;;;;;;;2.00;2.00;;;;;18.76;43.28;102946.22;5096612;27;45407;-81
2023/02/04 04:56:00;;;;;;;;;3.75;2.75;;;;;18.75;43.58;102947.13;5098017;27;45409;-81
2023/02/04 04:58:26;;;;;;;;;4.25;3.00;;;;;18.76;43.15;102951.53;5099526;27;64849;-81
2023/02/04 05:00:51;;;;;;;;;4.25;2.75;;;;;18.73;43.14;102949.84;5097444;27;65867;-81
2023/02/04 05:03:16;;;;;;;;;6.25;6.00;;;;;18.76;43.37;102959.50;5094628;27;71323;-81
2023/02/04 05:05:43;;;;;;;;;8.00;4.75;;;;;18.76;43.15;102959.50;5089300;27;45444;-81
2023/02/04 05:08:11;;;;;;;;;5.75;5.00;;;;;18.74;43.25;102959.53;5078652;27;45630;-81
2023/02/04 05:10:38;;;;;;;;;8.00;5.25;;;;;18.67;43.19;102949.97;5092236;27;45378;-81
2023/02/04 05:13:03;;;;;;;;;9.25;6.75;;;;;18.62;43.24;102935.97;5094660;27;45472;-81
2023/02/04 05:15:29;;;;;;;;;8.00;6.25;;;;;18.74;43.19;102951.56;5094060;27;45380;-81
2023/02/04 05:17:54;;;;;;;;;6.25;6.25;;;;;18.76;43.06;102960.34;5094540;27;53571;-81
2023/02/04 05:20:19;;;;;;;;;7.25;5.50;;;;;18.73;43.22;102959.56;5095474;27;46210;-81
2023/02/04 05:22:45;;;;;;;;;8.50;7.25;;;;;18.71;43.15;102956.09;5082126;27;52075;-81
2023/02/04 05:25:10;;;;;;;;;7.75;6.75;;;;;18.77;43.33;102966.56;5092321;27;67176;-81
2023/02/04 05:27:35;;;;;;;;;8.50;6.00;;;;;18.75;43.20;102969.25;5081254;27;62915;-80
2023/02/04 05:30:01;;;;;;;;;6.25;5.25;;;;;18.67;43.02;102946.47;5079922;27;72916;-81
2023/02/04 05:32:26;;;;;;;;;7.25;5.00;;;;;18.74;43.05;102958.66;5086757;27;56796;-81
2023/02/04 05:34:51;;;;;;;;;6.00;6.00;;;;;18.73;43.21;102959.56;5098583;27;46485;-81
2023/02/04 05:37:19;;;;;;;;;7.25;5.25;;;;;18.71;43.11;102964.91;5079120;27;59429;-81
2023/02/04 05:39:46;;;;;;;;;6.25;4.00;;;;;18.73;43.10;102968.41;5080256;27;48221;-81
2023/02/04 05:42:11;;;;;;;;;5.00;3.75;;;;;18.74;43.00;102972.78;5096160;27;45342;-81
2023/02/04 05:44:36;;;;;;;;;6.50;4.25;;;;;18.72;43.30;102971.09;5100388;27;45384;-81
2023/02/04 05:47:02;;;;;;;;;4.75;4.00;;;;;18.72;43.21;102971.09;5095341;27;45584;-81
2023/02/04 05:49:27;;;;;;;;;4.75;3.75;;;;;18.70;43.18;102970.28;5097718;27;74988;-81
2023/02/04 05:51:52;;;;;;;;;4.00;3.50;;;;;18.74;42.97;102982.53;5071141;27;48441;-81
2023/02/04 05:54:19;;;;;;;;;6.50;3.75;;;;;18.73;43.38;102989.63;5096169;27;45457;-81
2023/02/04 05:56:46;;;;;;;;;7.25;4.25;;;;;18.73;43.22;102983.44;5081844;27;45523;-81
2023/02/04 05:59:11;;;;;;;;;3.25;3.00;;;;;18.71;43.06;102979.97;5093719;27;45511;-81
2023/02/04 06:01:36;;;;;;;;;3.50;2.75;;;;;18.74;43.22;102979.88;5092505;27;45424;-81
2023/02/04 06:04:02;;;;;;;;;4.00;2.25;;;;;18.73;43.01;102980.78;5097494;27;45461;-80
2023/02/04 06:06:27;;;;;;;;;7.00;3.50;;;;;18.72;43.20;102979.91;5095250;27;45686;-81
2023/02/04 06:08:52;;;;;;;;;3.50;3.25;;;;;18.72;43.27;102987.00;5078614;27;63556;-81
2023/02/04 06:11:18;;;;;;;;;5.75;3.75;;;;;18.71;43.15;102982.59;5089822;27;56778;-81
2023/02/04 06:13:43;;;;;;;;;5.00;3.75;;;;;18.68;43.14;102975.63;5081760;27;48053;-81
2023/02/04 06:16:08;;;;;;;;;3.50;3.50;;;;;18.72;43.13;102985.22;5079142;27;52204;-81
2023/02/04 06:18:33;;;;;;;;;3.25;2.75;;;;;18.71;43.21;102985.25;5087172;27;71462;-81
2023/02/04 06:20:59;;;;;;;;;4.75;4.00;;;;;18.71;43.02;102991.44;5099938;27;53608;-80
2023/02/04 06:23:25;;;;;;;;;4.75;2.50;;;;;18.70;43.24;102976.44;5089995;27;45337;-81
2023/02/04 06:25:50;;;;;;;;;2.75;2.75;;;;;18.66;43.04;102968.59;5072947;27;45541;-81
2023/02/04 06:28:16;;;;;;;;;2.75;2.50;;;;;18.70;43.08;102978.22;5092716;27;59060;-81
2023/02/04 06:30:43;;;;;;;;;4.00;4.00;;;;;18.64;43.31;102971.28;5083129;27;45580;-81
2023/02/04 06:33:08;;;;;;;;;3.50;2.50;;;;;18.68;43.10;102969.41;5091896;27;45643;-80
2023/02/04 06:35:33;;;;;;;;;2.50;2.50;;;;;18.70;43.11;102976.44;5087735;27;45262;-80
2023/02/04 06:37:59;;;;;;;;;2.50;1.50;;;;;18.66;43.17;102981.84;5078969;27;48605;-80
2023/02/04 06:40:24;;;;;;;;;3.75;2.00;;;;;18.70;43.15;102976.44;5091527;27;66811;-80
2023/02/04 06:42:49;;;;;;;;;4.00;2.75;;;;;18.67;43.05;102971.19;5072566;27;71456;-81
2023/02/04 06:45:15;;;;;;;;;2.75;2.00;;;;;18.61;43.16;102971.38;5095521;27;65660;-81
2023/02/04 06:47:40;;;;;;;;;4.00;3.00;;;;;18.67;43.01;102987.13;5097532;27;45294;-81
2023/02/04 06:50:06;;;;;;;;;2.75;1.75;;;;;18.64;43.29;102979.22;5094948;27;61991;-81
2023/02/04 06:52:31;;;;;;;;;2.75;1.75;;;;;18.67;43.06;102983.59;5075225;27;45517;-81
2023/02/04 06:54:56;;;;;;;;;3.25;2.00;;;;;18.68;42.95;102991.53;5096783;27;53483;-81
2023/02/04 06:57:22;;;;;;;;;4.25;2.25;;;;;18.66;43.31;102982.75;5080877;27;65636;-81
2023/02/04 06:59:47;;;;;;;;;2.75;0.75;;;;;18.65;43.02;102978.34;5079908;27;62537;-80
2023/02/04 07:02:13;;;;;;;;;1.50;1.50;;;;;18.69;43.07;102995.03;5093696;27;66227;-80
2023/02/04 07:04:38;;;;;;;;;3.00;2.75;;;;;18.65;43.04;102981.00;5091317;27;45953;-81
2023/02/04 07:07:04;;;;;;;;;3.50;2.25;;;;;18.64;42.91;102986.31;5096673;27;46700;-81
2023/02/04 07:09:29;;;;;;;;;2.50;2.50;;;;;18.67;43.21;102989.78;5078418;27;45585;-81
2023/02/04 07:11:54;;;;;;;;;3.50;2.00;;;;;18.62;43.15;102977.53;5076954;27;46355;-80
2023/02/04 07:14:20;;;;;;;;;4.50;2.50;;;;;18.62;43.15;102981.06;5090792;27;57506;-81
2023/02/04 07:16:45;;;;;;;;;3.75;2.75;;;;;18.61;43.27;102976.69;5085726;27;46013;-81
2023/02/04 07:19:10;;;;;;;;;2.50;2.50;;;;;18.67;43.13;102995.06;5075204;27;62280;-80
2023/02/04 07:21:36;;;;;;;;;4.50;2.75;;;;;18.63;43.25;102989.88;5079515;27;45594;-80
2023/02/04 07:24:01;;;;;;;;;4.50;2.50;;;;;18.63;43.03;102987.22;5098372;27;59508;-80
2023/02/04 07:26:26;;;;;;;;;3.50;2.00;;;;;18.66;43.19;103006.63;5096212;27;45577;-81
2023/02/04 07:28:52;;;;;;;;;3.00;1.25;;;;;18.68;43.10;103003.91;5098666;27;69424;-80
2023/02/04 07:31:17;;;;;;;;;2.00;1.50;;;;;18.63;43.15;103008.44;5087854;27;45578;-80
2023/02/04 07:33:43;;;;;;;;;3.50;2.00;;;;;18.62;43.16;103010.22;5098793;27;45350;-80
2023/02/04 07:36:08;;;;;;;;;4.25;2.75;;;;;18.66;43.33;103019.88;5071780;27;47618;-80
2023/02/04 07:38:33;;;;;;;;;3.75;1.75;;;;;18.66;43.37;103029.59;5098007;27;45403;-80
2023/02/04 07:40:59;;;;;;;;;1.75;1.75;;;;;18.62;42.96;103014.66;5088494;27;65195;-80
2023/02/04 07:43:24;;;;;;;;;1.75;1.75;;;;;18.63;43.22;103019.03;5075031;27;59850;-80
2023/02/04 07:45:49;;;;;;;;;4.50;2.25;;;;;18.62;42.87;103020.84;5080456;27;70840;-80
2023/02/04 07:48:15;;;;;;;;;3.00;2.75;;;;;18.65;43.29;103027.88;5094504;27;45440;-80
2023/02/04 07:50:40;;;;;;;;;2.75;2.00;;;;;18.65;43.14;103034.03;5070802;27;62617;-80
2023/02/04 07:53:06;;;;;;;;;3.75;2.75;;;;;18.66;43.13;103040.19;5094841;27;63113;-80
2023/02/04 07:55:31;;;;;;;;;1.50;1.50;;;;;18.60;43.05;103023.53;5077387;27;48294;-80
2023/02/04 07:57:56;;;;;;;;;3.25;2.25;;;;;18.60;43.17;103026.16;5093762;27;47886;-80
2023/02/04 08:00:22;;;;;;;;;1.75;1.75;;;;;18.60;43.00;103025.31;5094435;27;45468;-80
2023/02/04 08:02:47;;;;;;;;;5.00;2.50;;;;;18.60;43.00;103031.47;5106028;27;45517;-80
2023/02/04 08:05:13;;;;;;;;;2.00;2.00;;;;;18.60;43.08;103034.13;5094077;27;45485;-80
2023/02/04 08:07:38;;;;;;;;;2.75;1.75;;;;;18.61;42.92;103037.69;5089215;27;45358;-80
2023/02/04 08:10:05;;;;;;;;;4.75;2.75;;;;;18.59;42.82;103042.13;5077044;28;45535;-80
2023/02/04 08:12:30;;;;;;;;;3.75;2.75;;;;;18.60;42.89;103043.88;5070891;27;45564;-80
2023/02/04 08:14:56;;;;;;;;;3.00;2.75;;;;;18.60;43.02;103043.88;5074456;27;58008;-80
2023/02/04 08:17:21;;;;;;;;;3.25;2.25;;;;;18.63;43.03;103046.47;5084704;27;45788;-80
2023/02/04 08:19:46;;;;;;;;;3.25;2.00;;;;;18.62;43.38;103051.81;5097098;27;58249;-80
2023/02/04 08:22:12;;;;;;;;;2.00;2.00;;;;;18.60;42.94;103043.88;5093758;27;45332;-80
2023/02/04 08:24:37;;;;;;;;;3.00;2.00;;;;;18.59;42.96;103043.00;5079045;27;48402;-80
2023/02/04 08:27:03;;;;;;;;;2.50;2.00;;;;;18.64;42.76;103057.94;5082760;27;45390;-80
2023/02/04 08:29:28;;;;;;;;;4.50;1.75;;;;;18.62;42.87;103057.97;5078022;27;45537;-80
2023/02/04 08:31:54;;;;;;;;;2.00;1.00;;;;;18.63;42.98;103058.81;5093640;27;46134;-80
2023/02/04 08:34:19;;;;;;;;;3.25;1.75;;;;;18.62;43.02;103051.81;5082346;27;47842;-80
2023/02/04 08:36:44;;;;;;;;;0.25;0.00;;;;;18.56;42.99;103048.38;5083814;27;45263;-80
2023/02/04 08:39:11;;;;;;;;;5.25;1.75;;;;;18.62;43.02;103057.09;5099842;27;54236;-80
2023/02/04 08:41:36;;;;;;;;;2.75;2.75;;;;;18.63;42.93;103061.47;5101210;27;45485;-80
2023/02/04 08:44:01;;;;;;;;;3.50;1.75;;;;;18.60;42.94;103057.13;5096513;27;46235;-80
2023/02/04 08:46:27;;;;;;;;;2.50;2.25;;;;;18.63;43.28;103065.03;5092532;27;62619;-80
2023/02/04 08:48:52;;;;;;;;;2.75;2.75;;;;;18.59;43.27;103050.97;5090804;27;45404;-80
2023/02/04 08:51:18;;;;;;;;;3.75;2.50;;;;;18.60;43.06;103067.75;5096358;27;45571;-80
2023/02/04 08:53:43;;;;;;;;;2.50;2.50;;;;;18.59;43.09;103063.34;5094775;27;45887;-80
2023/02/04 08:56:09;;;;;;;;;2.25;2.25;;;;;18.55;43.13;103056.38;5112298;27;59952;-80
2023/02/04 08:58:35;;;;;;;;;2.50;2.25;;;;;18.57;43.12;103057.19;5083244;27;45453;-80
2023/02/04 09:01:00;;;;;;;;;3.25;2.75;;;;;18.59;43.08;103060.69;5083729;27;45580;-80
2023/02/04 09:03:26;;;;;;;;;2.25;1.75;;;;;18.58;42.92;103061.59;5096034;27;45577;-80
2023/02/04 09:05:51;;;;;;;;;6.00;3.00;;;;;18.55;43.19;103062.53;5094873;27;65731;-80
2023/02/04 09:08:17;;;;;;;;;1.25;1.25;;;;;18.54;42.63;103059.94;5095987;27;45305;-80
2023/02/04 09:10:42;;;;;;;;;2.00;2.00;;;;;18.60;43.38;103071.25;5095486;27;45639;-80
2023/02/04 09:13:10;;;;;;;;;1.75;1.75;;;;;18.56;42.88;103071.38;5095165;27;70514;-79
2023/02/04 09:15:35;;;;;;;;;2.00;2.00;;;;;18.57;43.15;103078.41;5100648;27;46199;-80
2023/02/04 09:18:10;;;;;;;;;2.75;2.00;;;;;18.55;43.28;103073.13;5074156;27;51677;-79
2023/02/04 09:20:37;;;;;;;;;3.25;1.50;;;;;18.59;43.06;103081.91;5092982;27;45340;-80
2023/02/04 09:23:03;;;;;;;;;2.25;2.25;;;;;18.55;43.17;103074.94;5081717;27;47381;-80
2023/02/04 09:25:28;;;;;;;;;2.25;2.25;;;;;18.59;43.38;103085.44;5097262;27;45460;-80
2023/02/04 09:27:54;;;;;;;;;3.75;2.75;;;;;18.58;42.95;103085.47;5096452;27;66359;-80
2023/02/04 09:30:19;;;;;;;;;2.75;1.50;;;;;18.60;43.04;103084.53;5095772;27;66534;-80
2023/02/04 09:32:47;;;;;;;;;1.75;1.75;;;;;18.54;43.17;103079.38;5077129;27;47146;-81
2023/02/04 09:35:12;;;;;;;;;2.25;1.75;;;;;18.60;43.40;103084.53;5074236;27;45622;-80
2023/02/04 09:37:37;;;;;;;;;2.00;2.00;;;;;18.57;43.00;103081.06;5088975;27;65128;-80
2023/02/04 09:40:03;;;;;;;;;1.50;1.50;;;;;18.57;43.16;103081.97;5098417;27;68197;-80
2023/02/04 09:42:28;;;;;;;;;1.25;1.25;;;;;18.54;43.17;103081.16;5099877;27;46139;-80
2023/02/04 09:44:54;;;;;;;;;1.50;0.50;;;;;18.56;43.21;103090.81;5098984;27;60477;-80
2023/02/04 09:47:22;;;;;;;;;2.50;2.50;;;;;18.56;43.05;103089.94;5095783;27;56814;-80
2023/02/04 09:49:47;;;;;;;;;2.50;2.00;;;;;18.58;43.03;103083.69;5095585;27;45528;-80
2023/02/04 09:52:15;;;;;;;;;4.50;1.75;;;;;18.55;43.18;103085.53;5094278;27;45389;-79
2023/02/04 09:54:41;;;;;;;;;2.25;2.00;;;;;18.52;43.16;103083.84;5093591;27;45845;-79
2023/02/04 09:57:14;;;;;;;;;1.75;1.75;;;;;18.55;43.28;103089.06;5098378;27;45407;-80
2023/02/04 09:59:39;;;;;;;;;4.00;2.25;;;;;18.54;43.22;103095.28;5096721;27;45356;-79
2023/02/04 10:02:25;;;;;;;;;2.75;2.00;;;;;18.57;42.94;103095.22;5090615;27;45505;-80
2023/02/04 10:04:52;;;;;;;;;1.50;1.50;;;;;18.54;43.20;103089.13;5079886;27;46975;-80
2023/02/04 10:07:23;;;;;;;;;3.50;2.00;;;;;18.59;43.11;103101.34;5084079;27;45567;-79
2023/02/04 10:09:49;;;;;;;;;2.75;2.75;;;;;18.57;43.34;103091.66;5081535;27;45427;-80
2023/02/04 10:12:14;;;;;;;;;2.00;1.50;;;;;18.56;43.43;103100.56;5099794;27;47572;-80
2023/02/04 10:14:39;;;;;;;;;3.75;3.75;;;;;18.55;43.29;103099.66;5088655;27;67468;-80
2023/02/04 10:17:07;;;;;;;;;2.00;2.00;;;;;18.60;43.24;103120.78;5094359;27;54137;-80
2023/02/04 10:19:32;;;;;;;;;1.75;1.75;;;;;18.59;42.96;103113.72;5080059;27;45397;-80
2023/02/04 10:21:57;;;;;;;;;3.75;1.75;;;;;18.56;43.24;103109.38;5081569;27;75181;-80
2023/02/04 10:24:25;;;;;;;;;3.00;2.25;;;;;18.56;43.27;103114.69;5097711;27;45364;-80
2023/02/04 10:26:50;;;;;;;;;1.75;1.75;;;;;18.54;43.40;103112.97;5088819;27;45421;-80
2023/02/04 10:29:18;;;;;;;;;2.00;1.50;;;;;18.53;43.24;103112.09;5084332;27;45448;-80
2023/02/04 10:31:46;;;;;;;;;4.25;2.50;;;;;18.57;43.18;103115.53;5094352;27;46038;-80
2023/02/04 10:34:22;;;;;;;;;1.75;1.75;;;;;18.56;43.33;103119.97;5076345;27;45406;-80
2023/02/04 10:36:57;;;;;;;;;1.50;1.50;;;;;18.58;43.29;103123.47;5095450;27;45499;-80
2023/02/04 10:39:26;;;;;;;;;4.75;1.75;;;;;18.55;43.39;103117.34;5072826;27;45734;-80
2023/02/04 10:42:00;;;;;;;;;3.00;1.75;;;;;18.53;43.68;103121.84;5094590;27;45580;-80
2023/02/04 10:44:28;;;;;;;;;2.00;2.00;;;;;18.59;43.30;103132.28;5070720;27;70398;-80
2023/02/04 10:47:05;;;;;;;;;2.00;2.00;;;;;18.55;43.35;103126.19;5087462;27;45427;-80
2023/02/04 10:49:31;;;;;;;;;3.00;2.00;;;;;18.59;43.31;103137.59;5096098;27;45570;-80
2023/02/04 10:51:57;;;;;;;;;3.25;1.50;;;;;18.54;43.20;103120.94;5091807;27;48193;-80
2023/02/04 10:54:31;;;;;;;;;4.50;2.00;;;;;18.56;43.51;103125.28;5079163;27;45583;-80
2023/02/04 10:57:20;;;;;;;;;1.00;1.00;;;;;18.55;43.29;103125.31;5083442;27;45237;-80
2023/02/04 10:59:47;;;;;;;;;2.00;1.75;;;;;18.54;43.22;103120.94;5096306;27;45413;-80
2023/02/04 11:02:41;;;;;;;;;1.50;1.50;;;;;18.59;43.51;103126.97;5097280;27;46669;-80
2023/02/04 11:05:12;;;;;;;;;3.50;2.00;;;;;18.58;43.35;103126.13;5093333;27;44986;-80
2023/02/04 11:07:37;;;;;;;;;1.75;1.50;;;;;18.58;43.19;103126.13;5099000;27;45304;-80
2023/02/04 11:10:03;;;;;;;;;2.00;1.50;;;;;18.59;43.39;103122.56;5090302;27;53361;-80
2023/02/04 11:12:54;;;;;;;;;2.75;2.75;;;;;18.57;43.35;103121.75;5094583;27;45373;-80
2023/02/04 11:15:37;;;;;;;;;1.75;1.00;;;;;18.52;43.10;103110.34;5090331;27;45360;-80
2023/02/04 11:18:23;;;;;;;;;4.00;2.00;;;;;18.54;43.43;103119.16;5089803;27;46579;-80
2023/02/04 11:20:51;;;;;;;;;2.00;2.00;;;;;18.57;43.23;103123.50;5099663;27;45456;-79